LIBR/BDS METAR and TAF weather

Enter ICAO airport designator
Station Type Date Time Source
LIBR METAR 2022/07/01 01:20 UTC NOAA

LIBR 010120Z 22003KT CAVOK 25/23 Q1012


Station Type Date Time Source
LIBR Decoded METAR 2022/07/01 01:20 UTC NOAA

Brindisi, Italy (LIBR) 40-39N 017-57E 10M
Jun 30, 2022 - 09:20 PM EDT / 2022.07.01 0120 UTC
Wind: from the SW (220 degrees) at 3 MPH (3 KT):0
Visibility: greater than 7 mile(s):0
Temperature: 77 F (25 C)
Dew Point: 73 F (23 C)
Relative Humidity: 88%
Pressure (altimeter): 29.88 in. Hg (1012 hPa)
ob: LIBR 010120Z 22003KT CAVOK 25/23 Q1012
cycle: 1

Station Type Date Time Source
LIBR TAF 2022/06/30 18:22 UTC NOAA

TAF LIBR 301700Z 3018/0118 VRB05KT 9999 FEW020
TEMPO 3023/0105 3000 BR
BECMG 0108/0110 13010KT

Example: see airport list